Time;durP1;ratioP1;P1;durP2;ratioP2;P2;SDS_P1;SDS_P2;PMS_P1;PMS_P2;Temp;Humidity;BMP_temperature;BMP_pressure;BME280_temperature;BME280_humidity;BME280_pressure;Samples;Min_cycle;Max_cycle;Signal;HPM_P1;HPM_P2
2021/08/10 00:02:26;;;;;;;2.80;1.70;;;;;;;17.28;65.23;97473.38;4961095;28;20022;-78
2021/08/10 00:04:52;;;;;;;3.42;1.58;;;;;;;17.27;65.44;97477.03;4994095;28;20046;-78
2021/08/10 00:07:17;;;;;;;2.47;1.40;;;;;;;17.28;65.29;97464.69;4993779;28;20091;-78
2021/08/10 00:09:43;;;;;;;4.18;1.60;;;;;;;17.32;65.41;97471.72;5010239;28;20077;-78
2021/08/10 00:12:09;;;;;;;4.35;2.00;;;;;;;17.34;65.33;97476.72;4992184;28;20549;-78
2021/08/10 00:14:35;;;;;;;4.00;2.63;;;;;;;17.34;65.65;97469.63;4993088;28;20041;-78
2021/08/10 00:17:01;;;;;;;3.92;1.67;;;;;;;17.35;65.49;97471.19;4977912;28;20030;-78
2021/08/10 00:19:26;;;;;;;4.28;1.88;;;;;;;17.41;65.39;97472.69;4994218;28;20037;-78
2021/08/10 00:21:51;;;;;;;2.72;1.60;;;;;;;17.38;65.79;97462.72;4977462;28;20029;-78
2021/08/10 00:24:17;;;;;;;3.17;1.80;;;;;;;17.38;65.96;97454.06;4977504;28;20037;-78
2021/08/10 00:26:45;;;;;;;3.95;1.73;;;;;;;17.44;65.75;97460.03;4992894;28;20042;-78
2021/08/10 00:29:11;;;;;;;2.38;2.00;;;;;;;17.41;65.63;97451.63;4978242;28;20041;-78
2021/08/10 00:31:36;;;;;;;2.97;1.83;;;;;;;17.41;65.73;97458.75;4993630;28;20444;-78
2021/08/10 00:34:02;;;;;;;2.53;1.63;;;;;;;17.38;65.69;97460.09;5003954;28;20029;-78
2021/08/10 00:36:29;;;;;;;3.33;1.63;;;;;;;17.33;65.87;97456.75;4968093;28;20033;-78
2021/08/10 00:38:55;;;;;;;4.60;2.20;;;;;;;17.33;65.84;97454.88;4968727;28;20501;-78
2021/08/10 00:41:20;;;;;;;2.50;1.92;;;;;;;17.30;66.06;97454.66;5009281;28;20044;-78
2021/08/10 00:43:47;;;;;;;3.63;2.05;;;;;;;17.25;65.79;97439.72;5012003;28;20034;-78
2021/08/10 00:46:14;;;;;;;2.45;1.60;;;;;;;17.29;65.78;97443.38;4993219;28;20026;-78
2021/08/10 00:48:39;;;;;;;2.25;1.75;;;;;;;17.30;65.82;97442.28;5010928;28;20380;-78
2021/08/10 00:51:07;;;;;;;3.22;1.70;;;;;;;17.20;65.98;97437.13;5008910;28;20037;-78
2021/08/10 00:53:33;;;;;;;2.92;1.63;;;;;;;17.28;65.85;97439.16;5009979;28;20030;-78
2021/08/10 00:55:58;;;;;;;2.60;1.58;;;;;;;17.32;65.45;97445.41;4960063;28;20100;-78
2021/08/10 00:58:24;;;;;;;2.67;1.52;;;;;;;17.26;65.77;97430.00;4971224;28;20061;-79
2021/08/10 01:00:49;;;;;;;3.90;2.33;;;;;;;17.30;65.49;97439.66;4988448;28;20022;-78
2021/08/10 01:03:15;;;;;;;2.03;1.55;;;;;;;17.30;65.63;97442.28;4989451;28;20057;-78
2021/08/10 01:05:48;;;;;;;3.17;1.90;;;;;;;17.16;65.67;97441.41;4958548;28;20062;-78
2021/08/10 01:08:22;;;;;;;3.05;1.63;;;;;;;17.17;65.73;97438.50;4976839;28;20044;-78
2021/08/10 01:11:16;;;;;;;2.67;1.95;;;;;;;16.95;66.19;97432.94;5009593;28;20041;-78
2021/08/10 01:13:48;;;;;;;3.47;1.75;;;;;;;17.04;65.68;97439.16;4987019;28;20066;-78
2021/08/10 01:16:21;;;;;;;2.60;1.65;;;;;;;17.00;65.76;97430.28;4992643;28;20040;-78
2021/08/10 01:19:13;;;;;;;3.67;1.70;;;;;;;16.98;65.86;97446.31;4974840;28;20032;-78
2021/08/10 01:21:42;;;;;;;2.63;1.45;;;;;;;16.99;66.09;97442.63;5008702;28;20171;-78
2021/08/10 01:24:18;;;;;;;2.92;1.77;;;;;;;16.90;67.30;97449.56;4976601;28;20080;-78
2021/08/10 01:26:54;;;;;;;4.13;1.75;;;;;;;16.97;66.61;97447.38;4976584;28;20040;-78
2021/08/10 01:29:24;;;;;;;4.70;2.35;;;;;;;16.96;66.62;97437.91;5003302;28;20129;-78
2021/08/10 01:31:51;;;;;;;3.60;1.70;;;;;;;17.08;66.61;97424.38;4993968;28;20049;-78
2021/08/10 01:34:41;;;;;;;4.80;1.88;;;;;;;17.01;66.79;97435.22;4992821;28;20048;-78
2021/08/10 01:37:13;;;;;;;3.20;1.73;;;;;;;17.13;66.24;97434.06;4992278;28;20034;-78
2021/08/10 01:39:40;;;;;;;4.20;1.65;;;;;;;17.19;66.56;97427.69;4992631;28;20039;-78
2021/08/10 01:42:06;;;;;;;3.97;2.47;;;;;;;17.26;66.56;97430.75;4991953;28;20052;-78
2021/08/10 01:44:33;;;;;;;2.10;1.40;;;;;;;17.15;66.46;97430.09;4976252;28;20548;-78
2021/08/10 01:47:03;;;;;;;1.80;1.60;;;;;;;17.13;66.07;97434.06;4992634;28;20055;-78
2021/08/10 01:49:30;;;;;;;3.83;1.48;;;;;;;17.15;66.22;97418.78;4992157;28;20582;-78
2021/08/10 01:51:57;;;;;;;3.45;1.58;;;;;;;17.15;66.21;97421.41;4992022;28;20030;-78
2021/08/10 01:54:23;;;;;;;2.63;1.98;;;;;;;17.17;66.38;97414.00;5008535;28;20034;-77
2021/08/10 01:56:48;;;;;;;6.65;2.10;;;;;;;17.16;66.36;97410.59;4975910;28;20033;-77
2021/08/10 01:59:16;;;;;;;1.95;1.58;;;;;;;17.08;66.11;97407.81;5008347;28;20034;-77
2021/08/10 02:01:43;;;;;;;3.40;1.58;;;;;;;17.19;66.10;97410.03;4989713;28;20458;-77
2021/08/10 02:04:08;;;;;;;3.42;1.80;;;;;;;17.17;66.12;97414.00;4975450;28;20378;-77
2021/08/10 02:06:36;;;;;;;3.72;1.80;;;;;;;17.10;66.44;97417.00;4975524;28;20045;-77
2021/08/10 02:09:01;;;;;;;2.58;1.50;;;;;;;17.19;66.10;97410.03;5008175;28;20034;-77
2021/08/10 02:11:29;;;;;;;3.42;1.60;;;;;;;17.15;66.26;97419.56;5007681;28;20493;-77
2021/08/10 02:13:55;;;;;;;3.28;2.08;;;;;;;17.19;66.18;97425.06;4975895;28;20072;-77
2021/08/10 02:16:22;;;;;;;4.78;1.75;;;;;;;17.11;65.93;97409.88;4975225;28;20477;-77
2021/08/10 02:18:48;;;;;;;2.15;1.88;;;;;;;17.18;66.29;97410.31;4974483;28;20065;-77
2021/08/10 02:21:34;;;;;;;3.25;1.70;;;;;;;16.96;66.37;97414.22;5006373;28;20567;-77
2021/08/10 02:24:04;;;;;;;3.92;1.80;;;;;;;17.00;66.09;97407.38;5007007;28;20037;-77
2021/08/10 02:26:30;;;;;;;3.90;1.58;;;;;;;17.10;65.82;97414.38;4990484;28;20229;-77
2021/08/10 02:28:56;;;;;;;1.98;1.70;;;;;;;17.10;65.71;97413.56;5007836;28;20045;-77
2021/08/10 02:31:23;;;;;;;3.55;2.03;;;;;;;17.09;65.75;97419.91;5007341;28;20500;-77
2021/08/10 02:33:50;;;;;;;3.17;1.55;;;;;;;17.10;65.94;97405.69;4991405;28;20056;-77
2021/08/10 02:36:17;;;;;;;2.75;1.42;;;;;;;17.05;65.83;97417.06;4975006;28;20041;-77
2021/08/10 02:38:43;;;;;;;2.33;1.45;;;;;;;17.13;65.74;97423.53;4989234;28;20504;-77
2021/08/10 02:41:09;;;;;;;2.45;1.42;;;;;;;17.11;65.56;97415.91;4990890;28;20042;-77
2021/08/10 02:43:35;;;;;;;1.45;1.35;;;;;;;17.10;65.95;97419.63;5008239;28;20037;-77
2021/08/10 02:46:00;;;;;;;3.22;1.92;;;;;;;17.10;66.09;97419.63;5007253;28;20038;-77
2021/08/10 02:48:31;;;;;;;2.83;1.85;;;;;;;17.00;65.94;97415.25;4991739;28;20042;-77
2021/08/10 02:50:56;;;;;;;3.33;1.63;;;;;;;17.09;66.13;97404.91;4990713;28;20034;-77
2021/08/10 02:53:21;;;;;;;3.88;1.70;;;;;;;17.04;65.92;97404.97;4991248;28;20026;-77
2021/08/10 02:56:19;;;;;;;2.53;1.40;;;;;;;16.84;66.36;97400.69;4991067;28;20121;-77
2021/08/10 02:58:53;;;;;;;2.40;1.30;;;;;;;16.86;66.32;97403.81;5004936;28;20489;-77
2021/08/10 03:01:20;;;;;;;2.35;1.52;;;;;;;16.95;66.26;97409.28;5005717;28;20049;-77
2021/08/10 03:03:49;;;;;;;3.92;1.60;;;;;;;16.96;66.22;97416.09;4991591;28;20034;-77
2021/08/10 03:06:15;;;;;;;2.92;1.48;;;;;;;16.91;66.09;97419.56;4995454;28;20042;-77
2021/08/10 03:08:47;;;;;;;1.88;1.42;;;;;;;16.80;66.69;97424.09;4991268;28;20026;-77
2021/08/10 03:11:12;;;;;;;2.28;1.42;;;;;;;16.93;66.75;97419.28;4990900;28;20037;-77
2021/08/10 03:13:39;;;;;;;2.97;1.80;;;;;;;16.94;67.41;97432.16;5007437;28;20061;-77
2021/08/10 03:16:05;;;;;;;2.72;1.60;;;;;;;16.99;66.84;97426.06;4968918;28;20527;-77
2021/08/10 03:18:35;;;;;;;2.55;2.03;;;;;;;16.99;66.61;97426.84;4991468;28;20034;-77
2021/08/10 03:21:01;;;;;;;1.80;1.35;;;;;;;16.94;66.50;97421.63;4974608;28;20030;-77
2021/08/10 03:23:29;;;;;;;4.00;1.70;;;;;;;16.86;66.60;97424.84;5002249;28;20026;-77
2021/08/10 03:25:55;;;;;;;3.00;1.55;;;;;;;16.94;66.72;97434.78;5007255;28;20292;-77
2021/08/10 03:28:22;;;;;;;4.00;1.60;;;;;;;16.91;67.06;97434.56;4992341;28;20481;-77
2021/08/10 03:30:48;;;;;;;3.50;1.60;;;;;;;16.94;66.71;97437.41;4990818;28;20046;-77
2021/08/10 03:33:15;;;;;;;2.88;1.65;;;;;;;16.89;66.74;97440.09;4990833;28;20374;-77
2021/08/10 03:35:40;;;;;;;2.17;1.60;;;;;;;16.95;66.69;97440.84;4974293;28;20444;-77
2021/08/10 03:38:07;;;;;;;2.78;1.58;;;;;;;16.89;67.02;97450.59;4976159;28;20040;-77
2021/08/10 03:40:32;;;;;;;2.60;1.52;;;;;;;16.94;67.55;97447.94;4994379;28;20037;-77
2021/08/10 03:42:58;;;;;;;5.15;1.92;;;;;;;16.93;67.35;97443.75;5010242;28;20034;-76
2021/08/10 03:45:26;;;;;;;4.47;1.83;;;;;;;16.96;66.96;97445.03;5011022;28;20026;-77
2021/08/10 03:47:52;;;;;;;2.42;1.67;;;;;;;17.01;66.92;97443.13;4994692;28;20113;-77
2021/08/10 03:50:19;;;;;;;3.33;1.83;;;;;;;17.03;67.47;97440.22;4977672;28;20026;-77
2021/08/10 03:52:44;;;;;;;3.17;1.98;;;;;;;17.09;67.35;97446.22;4993724;28;20396;-77
2021/08/10 03:55:10;;;;;;;3.08;1.85;;;;;;;17.04;67.39;97442.56;4994084;28;20037;-77
2021/08/10 03:57:36;;;;;;;4.20;1.70;;;;;;;17.07;66.63;97441.22;5012061;28;20034;-77
2021/08/10 04:00:04;;;;;;;3.17;1.92;;;;;;;17.08;66.60;97442.78;4962119;28;20116;-77
2021/08/10 04:02:30;;;;;;;3.40;1.60;;;;;;;17.11;66.63;97447.50;4975586;28;20030;-77
2021/08/10 04:04:55;;;;;;;5.82;1.90;;;;;;;17.14;66.93;97444.31;5015710;28;20056;-77
2021/08/10 04:07:21;;;;;;;3.45;1.80;;;;;;;17.10;67.39;97448.56;4993863;28;20033;-77
2021/08/10 04:09:47;;;;;;;4.65;2.00;;;;;;;17.17;66.90;97462.19;4993855;28;20116;-77
2021/08/10 04:12:13;;;;;;;3.60;1.83;;;;;;;17.20;66.74;97461.63;5009762;28;20070;-76
2021/08/10 04:14:42;;;;;;;3.90;1.95;;;;;;;17.14;67.30;97465.34;4993875;28;20046;-77
2021/08/10 04:17:08;;;;;;;4.28;2.55;;;;;;;17.29;67.22;97463.63;4977463;28;20026;-76
2021/08/10 04:19:36;;;;;;;3.45;1.85;;;;;;;17.28;67.38;97456.81;4977762;28;20025;-77
2021/08/10 04:22:03;;;;;;;2.47;1.60;;;;;;;17.34;67.50;97468.81;5007855;28;20109;-76
2021/08/10 04:24:28;;;;;;;2.08;1.83;;;;;;;17.41;67.52;97462.16;5011076;28;20030;-77
2021/08/10 04:26:54;;;;;;;3.08;1.98;;;;;;;17.42;67.07;97471.63;4993570;28;20044;-77
2021/08/10 04:29:19;;;;;;;3.63;1.48;;;;;;;17.41;67.16;97462.16;4993351;28;20034;-77
2021/08/10 04:31:45;;;;;;;2.42;1.63;;;;;;;17.42;67.37;97468.22;4976478;28;20062;-77
2021/08/10 04:34:10;;;;;;;2.83;1.80;;;;;;;17.39;67.21;97472.19;4976933;28;20038;-77
2021/08/10 04:36:36;;;;;;;3.25;1.65;;;;;;;17.40;67.06;97475.59;5010020;28;20453;-77
2021/08/10 04:39:01;;;;;;;2.67;1.98;;;;;;;17.40;67.67;97476.38;4976004;28;20026;-77
2021/08/10 04:41:27;;;;;;;2.22;1.55;;;;;;;17.46;67.15;97477.13;4992583;28;20112;-77
2021/08/10 04:43:55;;;;;;;6.38;1.90;;;;;;;17.55;67.22;97478.06;4977403;28;20032;-77
2021/08/10 04:46:25;;;;;;;2.50;1.95;;;;;;;17.55;67.49;97478.06;4993155;28;20084;-77
2021/08/10 04:48:50;;;;;;;3.00;2.20;;;;;;;17.65;67.63;97471.88;4992840;28;20040;-76
2021/08/10 04:51:16;;;;;;;2.55;1.80;;;;;;;17.73;67.38;97459.94;4992112;28;20511;-77
2021/08/10 04:53:42;;;;;;;3.03;1.90;;;;;;;17.77;67.50;97467.00;4989901;28;20042;-77
2021/08/10 04:56:07;;;;;;;3.03;1.80;;;;;;;17.85;67.20;97478.72;4990328;28;20062;-76
2021/08/10 04:58:32;;;;;;;1.95;1.70;;;;;;;17.85;66.97;97470.81;5010733;28;20046;-77
2021/08/10 05:00:58;;;;;;;4.43;2.25;;;;;;;17.86;67.08;97464.53;5009050;28;20444;-77
2021/08/10 05:03:24;;;;;;;2.10;1.90;;;;;;;17.99;66.46;97465.66;5009665;28;20080;-77
2021/08/10 05:05:50;;;;;;;4.85;1.88;;;;;;;18.00;66.40;97471.72;4968099;28;20217;-77
2021/08/10 05:08:15;;;;;;;3.55;2.17;;;;;;;17.95;66.58;97457.53;4973024;28;20556;-77
2021/08/10 05:10:44;;;;;;;3.53;1.60;;;;;;;17.96;66.37;97460.97;4975158;28;20503;-77
2021/08/10 05:13:10;;;;;;;2.25;1.63;;;;;;;17.97;66.37;97462.53;4975493;28;20026;-77
2021/08/10 05:15:36;;;;;;;3.13;1.85;;;;;;;17.93;66.41;97464.19;4992144;28;20091;-77
2021/08/10 05:18:02;;;;;;;3.88;2.20;;;;;;;18.02;66.01;97456.41;4992066;28;20481;-77
2021/08/10 05:20:27;;;;;;;4.28;2.10;;;;;;;18.06;65.80;97449.50;4991261;28;20038;-77
2021/08/10 05:22:53;;;;;;;4.03;2.03;;;;;;;18.04;65.86;97447.13;5008128;28;20392;-77
2021/08/10 05:25:18;;;;;;;3.80;2.10;;;;;;;18.19;65.50;97466.44;4989943;28;20037;-77
2021/08/10 05:27:44;;;;;;;3.80;1.80;;;;;;;18.18;65.43;97464.88;4991469;28;20116;-77
2021/08/10 05:30:10;;;;;;;2.70;1.92;;;;;;;18.18;65.56;97457.78;4989526;28;20488;-77
2021/08/10 05:32:35;;;;;;;2.75;1.70;;;;;;;18.21;65.22;97475.63;5008267;28;20034;-77
2021/08/10 05:35:01;;;;;;;3.00;1.77;;;;;;;18.21;65.32;97470.34;5008720;28;20040;-77
2021/08/10 05:37:26;;;;;;;3.50;2.05;;;;;;;18.23;65.26;97486.69;5009863;28;20040;-77
2021/08/10 05:39:51;;;;;;;3.40;1.88;;;;;;;18.23;65.13;97481.41;4973283;28;20026;-77
2021/08/10 05:42:17;;;;;;;2.80;1.98;;;;;;;18.25;65.81;97479.28;4991786;28;20038;-77
2021/08/10 05:44:42;;;;;;;4.72;2.17;;;;;;;18.37;65.35;97488.56;5008725;28;20041;-77
2021/08/10 05:47:07;;;;;;;2.55;2.35;;;;;;;18.29;65.24;97458.41;4992222;28;20061;-77
2021/08/10 05:49:33;;;;;;;3.92;1.92;;;;;;;18.34;65.78;97453.81;4975777;28;20034;-77
2021/08/10 05:51:58;;;;;;;3.58;1.98;;;;;;;18.45;65.33;97449.16;4972056;28;20026;-77
2021/08/10 05:54:24;;;;;;;2.58;1.65;;;;;;;18.45;65.13;97446.50;5007936;28;20109;-77
2021/08/10 05:56:49;;;;;;;2.05;1.85;;;;;;;18.53;65.29;97451.13;5008453;28;20045;-77
2021/08/10 05:59:16;;;;;;;3.95;2.42;;;;;;;18.55;65.25;97442.94;4975478;28;20030;-77
2021/08/10 06:01:41;;;;;;;5.05;2.13;;;;;;;18.59;65.27;97443.91;4974706;28;20547;-77
2021/08/10 06:04:06;;;;;;;5.85;1.95;;;;;;;18.63;65.26;97438.88;4991875;28;20097;-77
2021/08/10 06:06:34;;;;;;;4.00;2.17;;;;;;;18.63;65.43;97426.47;4991726;28;20037;-78
2021/08/10 06:09:01;;;;;;;2.80;2.30;;;;;;;18.55;65.44;97410.53;5008406;28;20390;-77
2021/08/10 06:11:26;;;;;;;2.45;2.25;;;;;;;18.60;65.78;97408.56;4991562;28;20417;-78
2021/08/10 06:13:52;;;;;;;3.58;2.08;;;;;;;18.60;65.31;97376.94;5009744;28;20030;-77
2021/08/10 06:16:17;;;;;;;2.45;1.95;;;;;;;18.68;65.01;97375.47;4972597;28;20036;-77
2021/08/10 06:18:42;;;;;;;4.07;2.00;;;;;;;18.68;64.95;97354.38;4970172;28;20422;-77
2021/08/10 06:21:08;;;;;;;2.67;1.80;;;;;;;18.71;64.48;97346.66;4989835;28;20105;-77
2021/08/10 06:23:34;;;;;;;3.97;1.80;;;;;;;18.68;64.75;97338.56;5008312;28;20030;-77
2021/08/10 06:25:59;;;;;;;2.17;2.00;;;;;;;18.74;63.93;97361.09;4957457;28;20526;-77
2021/08/10 06:28:25;;;;;;;3.15;2.00;;;;;;;18.77;64.08;97413.28;4991980;28;20112;-78
2021/08/10 06:30:50;;;;;;;2.65;1.90;;;;;;;18.75;64.15;97431.28;5007766;28;20087;-77
2021/08/10 06:33:16;;;;;;;3.10;1.90;;;;;;;18.86;63.48;97456.41;4991551;28;20144;-77
2021/08/10 06:35:41;;;;;;;2.25;1.58;;;;;;;18.85;63.23;97449.59;4992014;28;20030;-77
2021/08/10 06:38:06;;;;;;;1.92;1.80;;;;;;;18.90;63.94;97427.59;4991759;28;20084;-77
2021/08/10 06:40:32;;;;;;;3.33;2.00;;;;;;;19.03;63.77;97439.25;4988938;28;20056;-77
2021/08/10 06:42:57;;;;;;;3.05;1.70;;;;;;;19.07;63.54;97450.75;4990271;28;20030;-77
2021/08/10 06:45:23;;;;;;;3.65;2.10;;;;;;;19.11;63.13;97454.41;4963220;28;20071;-77
2021/08/10 06:47:49;;;;;;;3.50;1.80;;;;;;;19.22;62.70;97470.81;4974941;28;20401;-77
2021/08/10 06:50:15;;;;;;;3.78;2.20;;;;;;;19.20;63.19;97483.53;4971906;28;20042;-77
2021/08/10 06:52:40;;;;;;;3.65;1.83;;;;;;;19.21;62.85;97477.16;4973429;28;20041;-77
2021/08/10 06:55:06;;;;;;;2.92;1.80;;;;;;;19.27;63.00;97484.69;5008351;28;20085;-77
2021/08/10 06:57:31;;;;;;;2.80;1.98;;;;;;;19.32;62.31;97485.69;5009635;28;20030;-77
2021/08/10 06:59:57;;;;;;;2.83;2.00;;;;;;;19.27;62.38;97479.41;4991673;28;20036;-77
2021/08/10 07:02:22;;;;;;;2.95;2.45;;;;;;;19.28;62.34;97494.19;5007041;28;20045;-77
2021/08/10 07:04:48;;;;;;;4.10;2.40;;;;;;;19.30;62.25;97498.41;5008879;28;20546;-77
2021/08/10 07:07:13;;;;;;;4.45;2.63;;;;;;;19.24;62.50;97485.31;4991403;28;20033;-77
2021/08/10 07:09:39;;;;;;;2.13;1.70;;;;;;;19.41;62.12;97489.19;4985038;28;20036;-77
2021/08/10 07:12:07;;;;;;;4.60;2.30;;;;;;;19.35;62.94;97490.41;5007060;28;20045;-77
2021/08/10 07:14:32;;;;;;;3.17;1.75;;;;;;;19.37;62.34;97486.38;4995546;28;20052;-77
2021/08/10 07:16:58;;;;;;;7.25;2.17;;;;;;;19.33;62.85;97476.69;5000503;28;20037;-77
2021/08/10 07:19:23;;;;;;;3.65;1.88;;;;;;;19.41;63.71;97483.91;4994864;28;20152;-77
2021/08/10 07:21:48;;;;;;;3.88;2.20;;;;;;;19.38;63.37;97473.94;4994623;28;20177;-77
2021/08/10 07:24:14;;;;;;;1.92;1.60;;;;;;;19.41;63.34;97473.34;4981168;28;20625;-77
2021/08/10 07:26:39;;;;;;;3.92;2.08;;;;;;;19.54;63.30;97490.28;4996268;28;20049;-77
2021/08/10 07:29:05;;;;;;;2.78;1.80;;;;;;;19.54;62.77;97477.09;5013753;28;20030;-77
2021/08/10 07:31:30;;;;;;;3.15;1.83;;;;;;;19.57;63.45;97482.56;4960390;28;20038;-76
2021/08/10 07:33:56;;;;;;;2.75;1.60;;;;;;;19.58;63.54;97478.81;4993002;28;20362;-77
2021/08/10 07:36:21;;;;;;;3.35;2.22;;;;;;;19.63;63.16;97483.22;5004503;28;20475;-77
2021/08/10 07:38:47;;;;;;;3.50;1.75;;;;;;;19.68;62.21;97472.56;4987523;28;20118;-77
2021/08/10 07:41:13;;;;;;;2.85;2.17;;;;;;;19.69;62.84;97482.06;5011779;28;20527;-76
2021/08/10 07:43:38;;;;;;;2.25;1.60;;;;;;;19.72;63.26;97478.78;4979567;28;20061;-77
2021/08/10 07:46:06;;;;;;;2.55;2.17;;;;;;;19.82;63.23;97475.19;4995783;28;20026;-76
2021/08/10 07:48:32;;;;;;;2.00;1.60;;;;;;;19.89;63.47;97472.16;5012879;28;20473;-76
2021/08/10 07:50:58;;;;;;;2.80;1.90;;;;;;;20.00;63.85;97481.44;5011636;28;20030;-76
2021/08/10 07:53:24;;;;;;;3.05;2.15;;;;;;;20.10;62.59;97473.28;4995438;28;20030;-77
2021/08/10 07:55:50;;;;;;;3.25;2.10;;;;;;;20.10;61.97;97465.34;4994204;28;20404;-77
2021/08/10 07:58:15;;;;;;;3.63;2.30;;;;;;;20.13;62.21;97469.25;4995801;28;20036;-76
2021/08/10 08:00:41;;;;;;;3.20;1.92;;;;;;;20.11;62.01;97468.75;4990707;28;20552;-77
2021/08/10 08:03:06;;;;;;;2.75;1.90;;;;;;;20.17;62.31;97457.78;4978527;28;20057;-77
2021/08/10 08:05:32;;;;;;;2.92;1.98;;;;;;;20.23;61.61;97461.06;5014361;28;20057;-77
2021/08/10 08:07:58;;;;;;;2.90;2.40;;;;;;;20.32;61.44;97458.50;5014647;28;20025;-77
2021/08/10 08:10:24;;;;;;;3.92;2.13;;;;;;;20.41;61.33;97462.00;5010729;28;20538;-77
2021/08/10 08:12:49;;;;;;;2.47;2.17;;;;;;;20.51;62.44;97461.75;4994595;28;20417;-77
2021/08/10 08:15:15;;;;;;;3.25;2.13;;;;;;;20.61;61.58;97462.56;4994092;28;20057;-77
2021/08/10 08:17:40;;;;;;;2.13;1.88;;;;;;;20.67;61.54;97469.34;5008824;28;20061;-77
2021/08/10 08:20:06;;;;;;;3.10;1.85;;;;;;;20.74;61.15;97469.69;5014534;28;20033;-77
2021/08/10 08:22:32;;;;;;;4.07;1.90;;;;;;;20.84;60.97;97474.72;5008000;28;20030;-77
2021/08/10 08:24:58;;;;;;;2.00;1.90;;;;;;;20.97;60.21;97478.34;4978034;28;20028;-77
2021/08/10 08:27:23;;;;;;;6.25;2.03;;;;;;;21.11;60.67;97473.75;4993211;28;20365;-77
2021/08/10 08:29:48;;;;;;;1.83;1.73;;;;;;;21.29;59.65;97479.88;4994505;28;20641;-77
2021/08/10 08:32:14;;;;;;;2.72;1.90;;;;;;;21.54;58.53;97476.88;4993974;28;20377;-77
2021/08/10 08:34:39;;;;;;;3.47;1.70;;;;;;;21.64;58.47;97479.22;4994586;28;20042;-77
2021/08/10 08:37:07;;;;;;;3.97;1.73;;;;;;;21.79;56.98;97475.38;4995126;28;20116;-77
2021/08/10 08:39:33;;;;;;;2.42;1.50;;;;;;;21.74;57.83;97478.94;4994701;28;20074;-77
2021/08/10 08:42:00;;;;;;;3.63;2.28;;;;;;;21.69;57.86;97479.09;4991538;28;20030;-77
2021/08/10 08:44:26;;;;;;;2.88;2.40;;;;;;;21.82;57.05;97483.47;4994376;28;20030;-78
2021/08/10 08:46:52;;;;;;;3.92;1.77;;;;;;;21.79;57.83;97483.31;4994502;28;20037;-78
2021/08/10 08:49:22;;;;;;;3.17;2.33;;;;;;;21.68;57.69;97482.84;4994469;28;20033;-77
2021/08/10 08:51:48;;;;;;;5.18;1.50;;;;;;;21.83;57.46;97479.75;5002819;28;20041;-78
2021/08/10 08:54:14;;;;;;;2.67;2.42;;;;;;;22.21;56.18;97487.09;4977890;28;20026;-78
2021/08/10 08:56:40;;;;;;;3.88;2.08;;;;;;;22.52;54.56;97480.06;4991678;28;20478;-77
2021/08/10 08:59:05;;;;;;;2.45;1.80;;;;;;;22.71;54.01;97485.03;4984506;28;20038;-78
2021/08/10 09:01:31;;;;;;;1.77;1.67;;;;;;;22.99;52.29;97494.16;4988979;28;20076;-78
2021/08/10 09:03:56;;;;;;;2.03;1.55;;;;;;;23.11;51.81;97485.53;4994261;28;20042;-78
2021/08/10 09:06:23;;;;;;;2.90;1.50;;;;;;;23.31;50.86;97484.06;4963666;28;20070;-78
2021/08/10 09:08:53;;;;;;;2.65;1.70;;;;;;;23.48;51.96;97493.06;4978092;28;20088;-78
2021/08/10 09:11:20;;;;;;;3.17;1.90;;;;;;;23.52;52.56;97483.34;4977462;28;20056;-77
2021/08/10 09:14:01;;;;;;;3.45;2.00;;;;;;;23.34;53.20;97483.44;5000224;28;20061;-78
2021/08/10 09:16:27;;;;;;;4.22;1.50;;;;;;;23.77;52.10;97486.16;4976131;28;20539;-78
2021/08/10 09:18:53;;;;;;;3.63;1.80;;;;;;;23.78;50.60;97485.06;4993997;28;20049;-78
2021/08/10 09:21:21;;;;;;;3.08;1.67;;;;;;;23.68;51.86;97497.63;4977216;28;20062;-78
2021/08/10 09:23:58;;;;;;;4.18;1.60;;;;;;;23.64;52.08;97483.41;5008265;28;20464;-78
2021/08/10 09:26:32;;;;;;;3.03;2.13;;;;;;;23.84;50.49;97494.44;4975205;28;20026;-78
2021/08/10 09:29:02;;;;;;;2.53;1.63;;;;;;;23.95;50.92;97487.63;5009731;28;20492;-78
2021/08/10 09:31:35;;;;;;;2.67;1.92;;;;;;;23.89;52.74;97486.28;5005856;28;20397;-77
2021/08/10 09:34:23;;;;;;;3.00;1.80;;;;;;;23.87;50.60;97485.78;5004077;28;20582;-77
2021/08/10 09:36:50;;;;;;;4.60;2.08;;;;;;;24.30;49.53;97490.03;4993312;28;20066;-78
2021/08/10 09:39:16;;;;;;;4.22;1.58;;;;;;;24.34;48.35;97495.47;4992221;28;20026;-78
2021/08/10 09:42:03;;;;;;;2.90;1.85;;;;;;;23.92;48.96;97498.91;4976364;28;20052;-78
2021/08/10 09:44:29;;;;;;;2.67;1.67;;;;;;;24.04;51.07;97483.03;4977651;28;20161;-78
2021/08/10 09:46:55;;;;;;;2.10;1.38;;;;;;;24.09;50.56;97495.34;4992164;28;20034;-77
2021/08/10 09:49:21;;;;;;;2.90;1.70;;;;;;;24.15;50.54;97493.28;4996179;28;20121;-78
2021/08/10 09:51:48;;;;;;;2.88;1.65;;;;;;;24.23;49.86;97495.06;4955982;28;20069;-78
2021/08/10 09:54:14;;;;;;;2.95;1.77;;;;;;;24.80;48.22;97502.41;4990626;28;20104;-78
2021/08/10 09:56:40;;;;;;;2.35;1.60;;;;;;;25.33;46.62;97499.19;4998884;28;20037;-78
2021/08/10 09:59:06;;;;;;;2.65;1.50;;;;;;;25.35;45.60;97486.28;5009630;28;20570;-78
2021/08/10 10:01:53;;;;;;;2.22;1.60;;;;;;;25.70;45.16;97497.25;5005325;28;20041;-78
2021/08/10 10:04:27;;;;;;;2.13;1.90;;;;;;;25.86;44.80;97488.56;4977327;28;20037;-78
2021/08/10 10:06:54;;;;;;;3.65;1.52;;;;;;;26.43;45.66;97497.44;4977306;28;20088;-78
2021/08/10 10:09:22;;;;;;;3.10;1.88;;;;;;;26.26;44.92;97488.56;4974633;28;20040;-78
2021/08/10 10:11:49;;;;;;;2.20;1.80;;;;;;;26.70;44.11;97485.97;4989329;28;20037;-78
2021/08/10 10:14:15;;;;;;;2.30;1.40;;;;;;;26.65;41.91;97494.22;5006970;28;20057;-79
2021/08/10 10:16:44;;;;;;;3.28;1.35;;;;;;;26.28;43.33;97490.91;5006651;28;20066;-78
2021/08/10 10:19:12;;;;;;;3.80;1.95;;;;;;;26.54;41.73;97487.78;4968189;28;20037;-78
2021/08/10 10:21:41;;;;;;;2.50;1.60;;;;;;;26.32;42.01;97489.91;4954963;28;20045;-78
2021/08/10 10:24:07;;;;;;;3.15;1.65;;;;;;;26.30;43.50;97494.00;4973407;28;20577;-78
2021/08/10 10:26:37;;;;;;;5.80;1.70;;;;;;;26.44;42.54;97482.94;4975171;28;20481;-78
2021/08/10 10:29:03;;;;;;;1.52;1.42;;;;;;;26.91;43.19;97487.63;4988570;28;20034;-78
2021/08/10 10:31:30;;;;;;;2.60;1.92;;;;;;;26.95;42.94;97485.78;5006162;28;20038;-78
2021/08/10 10:33:56;;;;;;;3.38;1.90;;;;;;;27.30;43.07;97489.69;4957837;28;20022;-78
2021/08/10 10:36:21;;;;;;;1.73;1.63;;;;;;;27.23;41.91;97479.56;4975323;28;20033;-78
2021/08/10 10:38:47;;;;;;;3.75;1.88;;;;;;;27.06;40.63;97491.44;4974309;28;20026;-78
2021/08/10 10:41:13;;;;;;;3.85;1.65;;;;;;;26.51;43.40;97483.13;4972569;28;20503;-78
2021/08/10 10:43:39;;;;;;;5.82;2.00;;;;;;;26.24;44.58;97488.16;4969796;28;20034;-78
2021/08/10 10:46:25;;;;;;;3.47;1.70;;;;;;;25.55;45.88;97482.72;4991877;28;20088;-78
2021/08/10 10:48:50;;;;;;;2.97;1.73;;;;;;;26.41;43.29;97488.94;4997248;28;20045;-78
2021/08/10 10:51:23;;;;;;;3.13;2.17;;;;;;;26.37;44.25;97482.75;4992747;28;20034;-78
2021/08/10 10:53:48;;;;;;;2.40;1.77;;;;;;;26.95;41.31;97490.38;4996224;28;20377;-78
2021/08/10 10:56:26;;;;;;;4.40;1.92;;;;;;;26.80;42.97;97487.34;5012760;28;20022;-78
2021/08/10 10:58:56;;;;;;;2.83;1.88;;;;;;;27.01;43.19;97479.09;4972876;28;20469;-78
2021/08/10 11:01:30;;;;;;;2.40;1.80;;;;;;;27.05;40.43;97476.50;4993357;28;20041;-77
2021/08/10 11:04:06;;;;;;;2.92;1.80;;;;;;;26.80;42.19;97486.56;4993244;28;20092;-78
2021/08/10 11:06:36;;;;;;;2.47;1.95;;;;;;;26.48;44.65;97489.16;5008078;28;20140;-78
2021/08/10 11:09:03;;;;;;;3.13;1.67;;;;;;;26.58;44.24;97487.88;5010970;28;20060;-78
2021/08/10 11:11:45;;;;;;;2.78;1.83;;;;;;;26.27;48.09;97478.66;4995152;28;20033;-78
2021/08/10 11:14:35;;;;;;;2.47;2.17;;;;;;;26.63;44.93;97482.31;5012236;28;20034;-77
2021/08/10 11:17:21;;;;;;;3.15;2.05;;;;;;;26.27;44.20;97484.81;4977673;28;20065;-78
2021/08/10 11:19:48;;;;;;;2.00;1.80;;;;;;;26.50;45.42;97482.34;4993683;28;20595;-77
2021/08/10 11:22:16;;;;;;;2.90;2.28;;;;;;;26.28;46.37;97481.00;4976619;28;20108;-78
2021/08/10 11:24:43;;;;;;;3.15;2.00;;;;;;;26.54;46.39;97485.91;4977993;28;20068;-77
2021/08/10 11:27:31;;;;;;;2.50;2.10;;;;;;;26.05;46.26;97486.09;4993797;28;20034;-78
2021/08/10 11:29:57;;;;;;;2.30;2.00;;;;;;;26.26;45.21;97480.56;4977836;28;20536;-78
2021/08/10 11:32:44;;;;;;;3.53;2.40;;;;;;;26.03;45.02;97479.53;4973309;28;20062;-78
2021/08/10 11:35:28;;;;;;;2.20;2.00;;;;;;;26.06;42.56;97484.19;4977548;28;20571;-78
2021/08/10 11:38:15;;;;;;;3.57;2.00;;;;;;;26.17;42.21;97471.94;4994584;28;20026;-78